Brooksville, FL (34601)

7:14 AM EDT on September 02, 2015 (GMT -0400)
KFLBROOK7 | | Change Station
CLOSE
Current Station
Personal Weather Station
Location: Brooksville, FL
Elevation: 194 ft
Nearby Weather Stations
Active Advisory: Flood Warning

Elev 194 ft 28.60 °N, 82.39 °W | Updated 8 seconds ago

Clear
Clear
74.9 °F
Feels Like 75 °F
N
0.0
Wind Variable Wind from SSE
Gusts 0.0 mph

Today
High -- | Low -- °F
--% Chance of Precip.
Yesterday
High -- | Low -- °F
Precip. -- in
7:08 AM 7:49 PM
Waning Gibbous, 81% visible
Pressure 30.07 in
Visibility 8.0 miles
Clouds Clear
Heat Index 75 °F
Dew Point 21 °F
Humidity 13%
Rainfall 0.00 in
Snow Depth Not available.
UV 0 out of 12
Pollen 3.10 out of 12
Air Quality Not available.
Flu Activity Not available.
METAR KBKV 021053Z 00000KT 8SM CLR 23/22 A3008 RMK AO2 SLP183 T02330222
Pressure 30.07 in
Visibility 8.0 miles
Clouds Clear
Heat Index 75 °F
Dew Point 21 °F
Humidity 13%
Rainfall 0.00 in
Snow Depth Not available.
UV 0 out of 12
Pollen 3.10 out of 12
Air Quality Not available.
Flu Activity Not available.
METAR KBKV 021053Z 00000KT 8SM CLR 23/22 A3008 RMK AO2 SLP183 T02330222

10-Day Weather Forecast

×

Almanac

Astronomy

Sep. 02, 2015 Rise Set
Actual Time
Civil Twilight
Nautical Twilight
Astronomical Twilight
Moon
Length of Visible Light
Length of Day
Tomorrow will be .
, % of the Moon is Illuminated

Today's Extremes

State Highs State Lows

Community

WunderPhotos

Upload Photos

1,851,736 photos uploaded!

WunderBlogs® & News

Nearby

Air Quality

  Air Quality AQ Index Pollutant
Not available.

Snow Depth

Station Depth Elevation

Earthquake Activity

City Distance Mag. Time & Date
Minimum magnitude displayed is 2.5.

Coastal Water Temperatures

Place Temperature

Stations

Nearby Weather Stations

Station Location Temp. Windchill Dew Point Humidity Wind Precip. Elev Updated Type
                   
Flood Warning
Statement as of 10:34 PM EDT on September 01, 2015

The Flood Warning continues for
the Withlacoochee at Trilby
* until further notice.
* At 9 PM Tuesday the stage was 13.5 feet.
* Flood stage is 12 feet.
* The river will continue to fall to a stage of 13.2 feet by Thursday morning.
* Impact... at 14.2 feet... River Road east of the river is flooded. One campsite
at the park is flooded. Peterson Park is flooded and closed. One home on
cercelia Road is isolated. The Florida campland is flooded. Wood River Court
homes are isolated. And the Withlacoochee River canoe rental is flooded.
* Flood history... this crest compares to a previous crest of 12.4 feet on Sep 7
2012.



             Fld observed forecast 8am
location stg stg day time Wed Thu Fri Sat sun

Withlacoochee
Trilby 12 13.5 Tue 9 PM 13.4 13.2 12.8 12.5 12.3




Lat... Lon 2838 8219 2854 8226 2854 8217 2838 8210